createdAt,value
2019-03-02T00:00:42.476Z,7.50
2019-03-02T00:03:14.256Z,8.83
2019-03-02T00:05:46.287Z,7.93
2019-03-02T00:08:18.133Z,9.30
2019-03-02T00:10:49.976Z,7.97
2019-03-02T00:13:21.823Z,9.10
2019-03-02T00:15:53.697Z,8.73
2019-03-02T00:18:25.904Z,7.77
2019-03-02T00:20:59.133Z,7.40
2019-03-02T00:23:31.083Z,8.53
2019-03-02T00:26:06.240Z,9.03
2019-03-02T00:28:36.537Z,7.43
2019-03-02T00:31:08.393Z,7.67
2019-03-02T00:33:40.287Z,8.17
2019-03-02T00:36:12.145Z,9.93
2019-03-02T00:38:44.370Z,8.23
2019-03-02T00:41:16.249Z,8.17
2019-03-02T00:43:48.772Z,8.37
2019-03-02T00:46:20.771Z,9.20
2019-03-02T00:48:54.576Z,8.60
2019-03-02T00:51:26.526Z,10.00
2019-03-02T00:53:58.355Z,10.80
2019-03-02T00:56:30.228Z,9.00
2019-03-02T00:59:04.104Z,10.03
2019-03-02T01:01:36.676Z,9.47
2019-03-02T01:04:08.541Z,11.03
2019-03-02T01:06:40.400Z,11.30
2019-03-02T01:09:13.087Z,9.20
2019-03-02T01:11:44.974Z,10.47
2019-03-02T01:14:16.861Z,10.67
2019-03-02T01:16:51.727Z,11.30
2019-03-02T01:19:22.284Z,9.20
2019-03-02T01:21:54.189Z,9.13
2019-03-02T01:24:26.052Z,9.73
2019-03-02T01:26:59.413Z,10.10
2019-03-02T01:29:31.506Z,11.87
2019-03-02T01:32:03.376Z,9.70
2019-03-02T01:34:35.223Z,8.40
2019-03-02T01:37:08.164Z,7.93
2019-03-02T01:39:40.724Z,6.97
2019-03-02T01:42:12.585Z,8.73
2019-03-02T01:44:44.477Z,6.80
2019-03-02T01:47:17.040Z,7.67
2019-03-02T01:49:48.977Z,6.27
2019-03-02T01:52:20.820Z,7.70
2019-03-02T01:54:55.756Z,6.57
2019-03-02T01:57:26.946Z,6.30
2019-03-02T01:59:58.766Z,8.27
2019-03-02T02:02:32.685Z,7.20
2019-03-02T02:05:04.367Z,9.70
2019-03-02T02:07:36.632Z,6.77
2019-03-02T02:10:11.991Z,8.80
2019-03-02T02:12:44.269Z,10.17
2019-03-02T02:15:18.859Z,9.20
2019-03-02T02:17:53.055Z,12.53
2019-03-02T02:20:24.329Z,11.40
2019-03-02T02:22:56.185Z,8.83
2019-03-02T02:25:28.053Z,11.20
2019-03-02T02:27:59.947Z,14.50
2019-03-02T02:30:31.902Z,13.40
2019-03-02T02:33:05.802Z,13.30
2019-03-02T02:35:40.302Z,13.30
2019-03-02T02:38:15.529Z,13.93
2019-03-02T02:40:44.586Z,11.50
2019-03-02T02:43:20.857Z,13.37
2019-03-02T02:45:53.634Z,12.63
2019-03-02T02:48:26.293Z,13.10
2019-03-02T02:50:57.357Z,14.00
2019-03-02T02:53:29.236Z,14.53
2019-03-02T02:56:01.065Z,12.90
2019-03-02T02:58:32.953Z,15.80
2019-03-02T03:01:04.825Z,16.63
2019-03-02T03:03:36.683Z,14.37
2019-03-02T03:06:08.574Z,15.17
2019-03-02T03:08:45.339Z,14.97
2019-03-02T03:11:18.708Z,19.90
2019-03-02T03:13:50.619Z,16.23
2019-03-02T03:16:22.466Z,20.00
2019-03-02T03:18:54.369Z,18.43
2019-03-02T03:21:28.130Z,16.77
2019-03-02T03:24:03.929Z,17.03
2019-03-02T03:26:35.286Z,17.87
2019-03-02T03:29:09.602Z,17.20
2019-03-02T03:31:40.531Z,16.10
2019-03-02T03:34:12.380Z,16.63
2019-03-02T03:36:44.244Z,16.37
2019-03-02T03:39:16.096Z,17.53
2019-03-02T03:41:47.947Z,15.53
2019-03-02T03:44:25.903Z,15.80
2019-03-02T03:46:56.140Z,17.17
2019-03-02T03:49:30.100Z,15.83
2019-03-02T03:52:04.042Z,17.90
2019-03-02T03:54:34.189Z,16.33
2019-03-02T03:57:06.065Z,17.03
2019-03-02T03:59:38.112Z,16.10
2019-03-02T04:02:09.980Z,18.13
2019-03-02T04:04:41.853Z,17.67
2019-03-02T04:07:13.667Z,18.60
2019-03-02T04:09:46.939Z,18.60
2019-03-02T04:12:19.886Z,16.80
2019-03-02T04:14:56.806Z,16.20
2019-03-02T04:17:26.319Z,18.10
2019-03-02T04:19:58.211Z,15.47
2019-03-02T04:22:30.140Z,16.40
2019-03-02T04:25:02.056Z,15.03
2019-03-02T04:27:33.964Z,15.87
2019-03-02T04:30:07.081Z,18.17
2019-03-02T04:32:38.995Z,18.03
2019-03-02T04:35:10.983Z,15.67
2019-03-02T04:37:42.848Z,15.93
2019-03-02T04:40:14.728Z,16.63
2019-03-02T04:42:50.062Z,14.70
2019-03-02T04:45:20.160Z,16.97
2019-03-02T04:47:52.051Z,15.80
2019-03-02T04:50:27.035Z,15.80
2019-03-02T04:52:57.461Z,14.50
2019-03-02T04:55:29.327Z,15.30
2019-03-02T04:58:01.260Z,16.53
2019-03-02T05:00:33.252Z,15.63
2019-03-02T05:03:05.129Z,15.33
2019-03-02T05:05:36.975Z,15.20
2019-03-02T05:08:08.909Z,15.00
2019-03-02T05:10:40.794Z,16.27
2019-03-02T05:13:12.769Z,18.13
2019-03-02T05:15:44.624Z,17.37
2019-03-02T05:18:18.117Z,16.10
2019-03-02T05:20:50.063Z,23.00
2019-03-02T05:23:21.919Z,19.27
2019-03-02T05:25:54.560Z,21.63
2019-03-02T05:28:39.709Z,21.97
2019-03-02T05:31:11.462Z,22.83
2019-03-02T05:33:43.295Z,23.57
2019-03-02T05:36:15.468Z,23.87
2019-03-02T05:38:47.326Z,23.53
2019-03-02T05:41:19.180Z,22.97
2019-03-02T05:43:51.011Z,22.93
2019-03-02T05:46:25.511Z,26.50
2019-03-02T05:48:56.475Z,27.80
2019-03-02T05:51:28.324Z,28.03
2019-03-02T05:54:02.679Z,27.60
2019-03-02T05:56:33.815Z,30.90
2019-03-02T05:59:05.683Z,29.70
2019-03-02T06:01:40.417Z,31.90
2019-03-02T06:04:11.184Z,36.37
2019-03-02T06:06:43.030Z,30.50
2019-03-02T06:09:14.928Z,33.77
2019-03-02T06:11:46.826Z,33.00
2019-03-02T06:14:18.692Z,33.23
2019-03-02T06:16:53.787Z,37.47
2019-03-02T06:19:24.352Z,38.43
2019-03-02T06:21:56.203Z,36.23
2019-03-02T06:24:28.085Z,37.53
2019-03-02T06:26:59.973Z,42.57
2019-03-02T06:29:32.757Z,41.50
2019-03-02T06:32:05.433Z,38.37
2019-03-02T06:34:37.667Z,40.23
2019-03-02T06:37:09.551Z,43.93
2019-03-02T06:39:44.463Z,42.10
2019-03-02T06:42:15.070Z,43.03
2019-03-02T06:44:46.957Z,46.00
2019-03-02T06:47:18.812Z,42.80
2019-03-02T06:49:53.146Z,44.07
2019-03-02T06:52:25.486Z,43.80
2019-03-02T06:54:58.053Z,46.03
2019-03-02T06:57:29.921Z,47.67
2019-03-02T07:00:01.815Z,47.27
2019-03-02T07:02:35.146Z,51.90
2019-03-02T07:05:07.893Z,51.10
2019-03-02T07:07:39.848Z,49.50
2019-03-02T07:10:17.852Z,47.30
2019-03-02T07:12:48.831Z,54.87
2019-03-02T07:15:20.658Z,52.20
2019-03-02T07:18:05.741Z,48.07
2019-03-02T07:20:36.034Z,45.00
2019-03-02T07:23:07.880Z,48.63
2019-03-02T07:25:40.847Z,46.63
2019-03-02T07:28:13.419Z,48.47
2019-03-02T07:30:45.341Z,45.40
2019-03-02T07:33:17.243Z,46.10
2019-03-02T07:35:51.738Z,44.47
2019-03-02T07:38:22.816Z,44.60
2019-03-02T07:40:54.828Z,40.27
2019-03-02T07:43:26.710Z,39.53
2019-03-02T07:45:58.644Z,43.47
2019-03-02T07:48:33.052Z,41.93
2019-03-02T07:51:05.172Z,40.57
2019-03-02T07:53:38.026Z,40.93
2019-03-02T07:56:09.862Z,38.07
2019-03-02T07:58:41.762Z,38.27
2019-03-02T08:01:16.648Z,38.90
2019-03-02T08:03:49.615Z,45.50
2019-03-02T08:06:21.848Z,41.37
2019-03-02T08:08:55.099Z,37.93
2019-03-02T08:11:27.079Z,37.37
2019-03-02T08:13:59.003Z,38.73
2019-03-02T08:16:30.910Z,38.17
2019-03-02T08:19:03.897Z,42.27
2019-03-02T08:21:36.889Z,43.00
2019-03-02T08:24:09.142Z,41.80
2019-03-02T08:26:41.016Z,42.60
2019-03-02T08:29:12.925Z,41.60
2019-03-02T08:31:45.652Z,42.23
2019-03-02T08:34:17.704Z,40.67
2019-03-02T08:36:50.389Z,43.10
2019-03-02T08:39:23.194Z,40.47
2019-03-02T08:41:55.098Z,40.60
2019-03-02T08:44:26.996Z,43.53
2019-03-02T08:46:58.901Z,42.33
2019-03-02T08:49:30.757Z,41.50
2019-03-02T08:52:02.714Z,45.70
2019-03-02T08:54:34.567Z,43.30
2019-03-02T08:57:06.449Z,41.67
2019-03-02T08:59:38.850Z,40.30
2019-03-02T09:02:10.813Z,42.80
2019-03-02T09:04:42.730Z,44.37
2019-03-02T09:07:14.762Z,41.83
2019-03-02T09:09:46.619Z,40.17
2019-03-02T09:12:21.916Z,42.73
2019-03-02T09:14:52.005Z,53.30
2019-03-02T09:17:23.914Z,48.13
2019-03-02T09:19:59.571Z,46.43
2019-03-02T09:22:29.348Z,46.43
2019-03-02T09:25:01.210Z,48.80
2019-03-02T09:27:33.130Z,46.53
2019-03-02T09:30:06.211Z,43.10
2019-03-02T09:32:38.070Z,46.67
2019-03-02T09:35:12.930Z,42.20
2019-03-02T09:37:44.821Z,44.13
2019-03-02T09:40:19.586Z,42.60
2019-03-02T09:42:51.694Z,42.63
2019-03-02T09:45:23.739Z,40.43
2019-03-02T09:47:55.607Z,43.90
2019-03-02T09:50:27.596Z,43.83
2019-03-02T09:52:59.913Z,42.53
2019-03-02T09:55:31.774Z,40.80
2019-03-02T09:58:03.638Z,43.77
2019-03-02T10:00:36.059Z,42.53
2019-03-02T10:03:08.041Z,43.17
2019-03-02T10:05:39.951Z,44.00
2019-03-02T10:08:13.261Z,45.10
2019-03-02T10:10:45.387Z,41.17
2019-03-02T10:13:17.315Z,43.40
2019-03-02T10:15:49.179Z,43.00
2019-03-02T10:18:21.066Z,43.43
2019-03-02T10:20:52.926Z,44.97
2019-03-02T10:23:24.825Z,42.47
2019-03-02T10:25:58.068Z,44.27
2019-03-02T10:28:33.813Z,41.33
2019-03-02T10:31:06.136Z,44.33
2019-03-02T10:33:37.173Z,39.90
2019-03-02T10:36:09.054Z,37.93
2019-03-02T10:38:40.876Z,41.10
2019-03-02T10:41:12.737Z,47.13
2019-03-02T10:43:45.590Z,39.87
2019-03-02T10:46:17.617Z,43.10
2019-03-02T10:48:49.468Z,41.47
2019-03-02T10:51:21.337Z,42.13
2019-03-02T10:53:55.818Z,40.47
2019-03-02T10:56:26.789Z,43.37
2019-03-02T10:58:58.644Z,37.67
2019-03-02T11:01:30.502Z,33.40
2019-03-02T11:04:10.763Z,34.67
2019-03-02T11:06:54.705Z,32.57
2019-03-02T11:09:45.411Z,28.50
2019-03-02T11:12:27.904Z,33.93
2019-03-02T11:15:10.661Z,30.13
2019-03-02T11:17:48.709Z,28.07
2019-03-02T11:20:30.245Z,27.30
2019-03-02T11:23:23.008Z,30.30
2019-03-02T11:26:08.909Z,27.77
2019-03-02T11:28:57.101Z,27.07
2019-03-02T11:31:50.836Z,27.60
2019-03-02T11:38:46.560Z,27.57
2019-03-02T11:41:40.230Z,24.50
2019-03-02T11:44:27.569Z,24.03
2019-03-02T11:47:21.382Z,24.90
2019-03-02T11:50:03.884Z,25.90
2019-03-02T11:53:15.627Z,24.57
2019-03-02T11:55:53.592Z,27.77
2019-03-02T11:58:43.093Z,23.00
2019-03-02T12:01:47.172Z,20.90
2019-03-02T12:04:40.161Z,22.13
2019-03-02T12:07:20.331Z,27.13
2019-03-02T12:10:01.000Z,21.23
2019-03-02T12:12:51.368Z,24.80
2019-03-02T12:15:49.258Z,21.83
2019-03-02T12:18:41.335Z,22.77
2019-03-02T12:21:37.993Z,23.70
2019-03-02T12:24:25.828Z,20.37
2019-03-02T12:27:08.494Z,19.27
2019-03-02T12:29:51.380Z,24.13
2019-03-02T12:32:45.842Z,19.10
2019-03-02T12:35:47.128Z,18.03
2019-03-02T12:38:49.850Z,17.40
2019-03-02T12:41:43.618Z,20.90
2019-03-02T12:44:28.982Z,20.53
2019-03-02T12:47:25.842Z,19.93
2019-03-02T12:50:07.872Z,18.23
2019-03-02T12:52:51.829Z,15.63
2019-03-02T12:55:45.699Z,19.43
2019-03-02T12:58:28.385Z,16.17
2019-03-02T13:01:22.049Z,19.47
2019-03-02T13:04:24.929Z,19.10
2019-03-02T13:07:24.558Z,18.00
2019-03-02T13:10:15.164Z,18.00
2019-03-02T13:13:09.555Z,15.77
2019-03-02T13:16:00.348Z,18.83
2019-03-02T13:18:41.604Z,17.20
2019-03-02T13:21:38.551Z,20.20
2019-03-02T13:24:27.903Z,18.37
2019-03-02T13:27:30.653Z,17.37
2019-03-02T13:30:14.606Z,16.53
2019-03-02T13:33:00.315Z,17.87
2019-03-02T13:35:37.540Z,16.13
2019-03-02T13:38:30.166Z,16.90
2019-03-02T13:41:17.415Z,18.83
2019-03-02T13:44:02.099Z,17.50
2019-03-02T13:46:40.372Z,18.23
2019-03-02T13:49:33.937Z,15.30
2019-03-02T13:52:40.346Z,17.20
2019-03-02T13:55:21.592Z,17.30
2019-03-02T13:58:02.393Z,18.33
2019-03-02T14:00:44.198Z,18.70
2019-03-02T14:03:40.093Z,16.10
2019-03-02T14:06:37.747Z,23.13
2019-03-02T14:09:28.954Z,18.30
2019-03-02T14:12:15.954Z,17.60
2019-03-02T14:15:12.369Z,18.47
2019-03-02T14:18:07.496Z,24.93
2019-03-02T14:20:49.174Z,19.23
2019-03-02T14:23:32.096Z,17.37
2019-03-02T14:26:20.831Z,20.37
2019-03-02T14:28:59.039Z,19.23
2019-03-02T14:31:37.935Z,17.60
2019-03-02T14:34:26.719Z,19.23
2019-03-02T14:37:03.730Z,19.23
2019-03-02T14:39:57.249Z,19.70
2019-03-02T14:42:51.044Z,17.23
2019-03-02T14:45:59.698Z,17.70
2019-03-02T14:48:49.493Z,17.93
2019-03-02T14:51:39.561Z,16.33
2019-03-02T14:54:30.315Z,19.00
2019-03-02T14:57:11.584Z,18.53
2019-03-02T15:00:08.563Z,18.63
2019-03-02T15:02:57.699Z,17.67
2019-03-02T15:05:39.835Z,18.47
2019-03-02T15:08:21.409Z,19.80
2019-03-02T15:11:00.420Z,16.43
2019-03-02T15:13:38.538Z,13.90
2019-03-02T15:16:32.502Z,14.20
2019-03-02T15:19:16.808Z,17.87
2019-03-02T15:22:13.804Z,14.77
2019-03-02T15:24:57.079Z,17.93
2019-03-02T15:27:43.693Z,13.40
2019-03-02T15:30:37.460Z,15.57
2019-03-02T15:33:23.580Z,15.87
2019-03-02T15:36:14.340Z,15.77
2019-03-02T15:39:17.348Z,16.37
2019-03-02T15:42:08.273Z,17.47
2019-03-02T15:44:57.645Z,16.63
2019-03-02T15:47:50.739Z,16.37
2019-03-02T15:50:39.113Z,15.77
2019-03-02T15:53:20.336Z,16.60
2019-03-02T15:55:57.520Z,13.80
2019-03-02T15:58:47.181Z,17.90
2019-03-02T16:01:35.170Z,14.60
2019-03-02T16:04:24.707Z,15.83
2019-03-02T16:07:15.459Z,15.43
2019-03-02T16:10:18.344Z,14.47
2019-03-02T16:13:21.079Z,17.57
2019-03-02T16:16:01.173Z,13.77
2019-03-02T16:18:54.974Z,15.37
2019-03-02T16:21:33.033Z,17.17
2019-03-02T16:24:29.463Z,16.37
2019-03-02T16:27:13.370Z,18.80
2019-03-02T16:30:04.750Z,16.90
2019-03-02T16:32:45.583Z,16.60
2019-03-02T16:35:48.462Z,17.17
2019-03-02T16:38:42.264Z,16.43
2019-03-02T16:41:25.499Z,17.80
2019-03-02T16:44:21.452Z,14.73
2019-03-02T16:47:20.893Z,18.03
2019-03-02T16:50:05.381Z,15.80
2019-03-02T16:53:07.889Z,17.00
2019-03-02T16:55:56.847Z,19.90
2019-03-02T16:58:53.448Z,18.07
2019-03-02T17:01:47.867Z,17.33
2019-03-02T17:04:35.776Z,13.90
2019-03-02T17:07:27.586Z,18.60
2019-03-02T17:10:20.085Z,15.37
2019-03-02T17:13:05.769Z,16.63
2019-03-02T17:15:49.191Z,18.20
2019-03-02T17:18:34.344Z,13.20
2019-03-02T17:21:30.034Z,12.77
2019-03-02T17:24:23.065Z,12.93
2019-03-02T17:27:30.113Z,13.63
2019-03-02T17:30:17.742Z,14.90
2019-03-02T17:33:23.028Z,9.73
2019-03-02T17:36:05.727Z,13.03
2019-03-02T17:39:02.260Z,13.80
2019-03-02T17:41:51.383Z,10.50
2019-03-02T17:44:46.525Z,10.63
2019-03-02T17:47:39.585Z,10.10
2019-03-02T17:50:28.564Z,12.73
2019-03-02T17:53:10.138Z,10.70
2019-03-02T17:55:56.022Z,10.27
2019-03-02T17:58:52.384Z,9.90
2019-03-02T18:01:32.294Z,11.67
2019-03-02T18:04:31.755Z,10.20
2019-03-02T18:07:29.478Z,10.23
2019-03-02T18:10:18.214Z,10.37
2019-03-02T18:13:20.573Z,10.23
2019-03-02T18:16:00.309Z,9.17
2019-03-02T18:18:31.878Z,9.67
2019-03-02T18:21:02.902Z,10.37
2019-03-02T18:23:34.179Z,10.20
2019-03-02T18:26:05.446Z,9.70
2019-03-02T18:28:36.711Z,10.57
2019-03-02T18:31:08.175Z,11.07
2019-03-02T18:33:47.722Z,11.63
2019-03-02T18:36:18.544Z,11.83
2019-03-02T18:38:50.380Z,12.20
2019-03-02T18:41:21.801Z,12.00
2019-03-02T18:43:53.456Z,11.90
2019-03-02T18:46:24.734Z,10.27
2019-03-02T18:49:20.746Z,11.13
2019-03-02T18:52:09.618Z,10.43
2019-03-02T18:54:49.089Z,10.67
2019-03-02T18:57:16.239Z,11.50
2019-03-02T18:59:48.121Z,10.60
2019-03-02T19:02:20.006Z,10.63
2019-03-02T19:04:54.647Z,11.33
2019-03-02T19:07:25.787Z,12.77
2019-03-02T19:09:57.296Z,11.27
2019-03-02T19:12:32.278Z,10.90
2019-03-02T19:15:02.172Z,10.70
2019-03-02T19:17:42.963Z,9.83
2019-03-02T19:20:14.820Z,9.40
2019-03-02T19:22:46.563Z,8.77
2019-03-02T19:25:18.134Z,9.70
2019-03-02T19:27:49.673Z,9.43
2019-03-02T19:30:21.542Z,9.40
2019-03-02T19:32:53.441Z,8.70
2019-03-02T19:35:24.819Z,8.53
2019-03-02T19:37:56.154Z,8.47
2019-03-02T19:40:29.469Z,8.67
2019-03-02T19:43:00.843Z,8.33
2019-03-02T19:45:32.180Z,8.80
2019-03-02T19:48:03.547Z,9.57
2019-03-02T19:50:35.212Z,8.93
2019-03-02T19:53:07.203Z,10.37
2019-03-02T19:55:38.839Z,7.57
2019-03-02T19:58:10.784Z,8.50
2019-03-02T20:00:42.896Z,7.93
2019-03-02T20:03:14.259Z,7.90
2019-03-02T20:05:45.639Z,7.83
2019-03-02T20:08:17.168Z,7.53
2019-03-02T20:10:48.520Z,8.13
2019-03-02T20:13:19.865Z,8.20
2019-03-02T20:15:51.262Z,8.83
2019-03-02T20:18:22.576Z,8.73
2019-03-02T20:20:53.847Z,10.10
2019-03-02T20:23:25.264Z,8.83
2019-03-02T20:25:56.596Z,9.00
2019-03-02T20:28:27.941Z,8.60
2019-03-02T20:30:59.248Z,8.20
2019-03-02T20:33:30.595Z,8.97
2019-03-02T20:36:01.882Z,8.90
2019-03-02T20:38:33.174Z,8.27
2019-03-02T20:41:04.611Z,8.40
2019-03-02T20:43:35.958Z,8.60
2019-03-02T20:46:07.366Z,8.20
2019-03-02T20:48:38.627Z,8.67
2019-03-02T20:51:09.962Z,9.10
2019-03-02T20:53:41.260Z,8.90
2019-03-02T20:56:12.595Z,8.47
2019-03-02T20:58:43.868Z,9.87
2019-03-02T21:01:15.222Z,8.57
2019-03-02T21:03:46.531Z,8.00
2019-03-02T21:06:17.828Z,10.57
2019-03-02T21:08:49.360Z,8.53
2019-03-02T21:11:20.599Z,7.90
2019-03-02T21:13:52.100Z,7.00
2019-03-02T21:16:23.410Z,8.97
2019-03-02T21:18:54.742Z,8.73
2019-03-02T21:21:26.047Z,7.27
2019-03-02T21:23:58.175Z,8.63
2019-03-02T21:26:29.525Z,6.80
2019-03-02T21:29:00.881Z,8.57
2019-03-02T21:31:33.071Z,6.73
2019-03-02T21:34:04.479Z,7.90
2019-03-02T21:36:35.846Z,8.40
2019-03-02T21:39:08.714Z,6.13
2019-03-02T21:41:40.087Z,6.33
2019-03-02T21:44:11.457Z,7.90
2019-03-02T21:46:42.791Z,6.27
2019-03-02T21:49:14.291Z,5.30
2019-03-02T21:51:45.613Z,7.73
2019-03-02T21:54:16.932Z,7.83
2019-03-02T21:56:48.282Z,7.00
2019-03-02T21:59:19.602Z,6.97
2019-03-02T22:01:50.923Z,6.57
2019-03-02T22:04:22.255Z,5.77
2019-03-02T22:06:53.513Z,7.90
2019-03-02T22:09:24.840Z,8.90
2019-03-02T22:11:56.160Z,7.53
2019-03-02T22:14:27.500Z,8.17
2019-03-02T22:17:00.595Z,8.13
2019-03-02T22:19:31.885Z,8.60
2019-03-02T22:22:03.128Z,7.73
2019-03-02T22:24:34.382Z,10.27
2019-03-02T22:27:08.876Z,8.70
2019-03-02T22:29:42.904Z,5.70
2019-03-02T22:32:14.154Z,10.47
2019-03-02T22:34:45.397Z,7.20
2019-03-02T22:37:16.700Z,11.90
2019-03-02T22:39:48.009Z,7.33
2019-03-02T22:42:19.270Z,5.63
2019-03-02T22:44:50.606Z,7.40
2019-03-02T22:47:22.971Z,8.80
2019-03-02T22:49:54.569Z,11.33
2019-03-02T22:52:25.797Z,7.67
2019-03-02T22:54:57.079Z,10.63
2019-03-02T22:57:28.328Z,8.80
2019-03-02T23:01:01.749Z,8.53
2019-03-02T23:03:30.565Z,9.37
2019-03-02T23:06:02.042Z,9.30
2019-03-02T23:08:33.324Z,9.47
2019-03-02T23:11:04.654Z,10.60
2019-03-02T23:13:35.938Z,9.47
2019-03-02T23:16:07.271Z,9.63
2019-03-02T23:18:38.558Z,11.03
2019-03-02T23:21:09.863Z,10.63
2019-03-02T23:23:41.123Z,9.30
2019-03-02T23:26:12.456Z,13.00
2019-03-02T23:28:43.725Z,11.67
2019-03-02T23:31:15.559Z,8.83
2019-03-02T23:33:46.867Z,14.20
2019-03-02T23:36:18.174Z,11.97
2019-03-02T23:38:49.436Z,9.70
2019-03-02T23:41:20.821Z,11.43
2019-03-02T23:47:54.160Z,12.23
2019-03-02T23:50:25.403Z,14.13
2019-03-02T23:52:56.655Z,9.50
2019-03-02T23:55:27.919Z,10.23
2019-03-02T23:57:59.240Z,10.03
